This is the latest recevied weather packets stored in our database for station/object KC1HBM. If no packets are shown the sender has not sent any weather packets the latest 1 day(s).
| Time | Temp. | Humidity | Pressure | Rain* | Wind** | Luminosity | Snow |
|---|---|---|---|---|---|---|---|
| 1777987457 | 16.67° C | 71% | 1006.3 hPa | 0 mm | 1.34 m/s, 324° | 443 W/m² | - |
| 1777987155 | 16.11° C | 72% | 1006.4 hPa | 0 mm | 0.45 m/s, 307° | 429 W/m² | - |
| 1777986851 | 15.56° C | 74% | 1006.5 hPa | 0 mm | 0 m/s | 416 W/m² | - |
| 1777986549 | 15° C | 75% | 1006.6 hPa | 0 mm | 0.89 m/s, 342° | 419 W/m² | - |
| 1777986247 | 15° C | 75% | 1006.7 hPa | 0 mm | 0.89 m/s, 351° | 422 W/m² | - |
| 1777985944 | 15° C | 75% | 1006.3 hPa | 0 mm | 0.89 m/s, 307° | 386 W/m² | - |
| 1777985642 | 15.56° C | 74% | 1006 hPa | 0 mm | 1.34 m/s, 315° | 371 W/m² | - |
| 1777985338 | 15.56° C | 74% | 1006 hPa | 0 mm | 0.45 m/s, 315° | 355 W/m² | - |
| 1777985035 | 15° C | 74% | 1006.1 hPa | 0 mm | 1.34 m/s, 353° | 349 W/m² | - |
| 1777984730 | 13.89° C | 76% | 1005.8 hPa | 0 mm | 0.45 m/s, 341° | 334 W/m² | - |
| 1777984427 | 14.44° C | 76% | 1005.9 hPa | 0 mm | 0.89 m/s, 326° | 320 W/m² | - |
| 1777984123 | 13.89° C | 77% | 1006 hPa | 0 mm | 0.89 m/s, 298° | 301 W/m² | - |
| 1777983821 | 13.33° C | 78% | 1006.1 hPa | 0 mm | 1.34 m/s, 310° | 292 W/m² | - |
| 1777983518 | 14.44° C | 77% | 1006.1 hPa | 0 mm | 0.45 m/s, 318° | 278 W/m² | - |
| 1777983215 | 14.44° C | 76% | 1006.1 hPa | 0 mm | 0.89 m/s, 308° | 263 W/m² | - |
| 1777982911 | 13.33° C | 80% | 1006.1 hPa | 0 mm | 0.45 m/s, 309° | 253 W/m² | - |
| 1777982607 | 12.78° C | 81% | 1006.3 hPa | 0 mm | 0.45 m/s, 10° | 235 W/m² | - |
| 1777982306 | 13.33° C | 79% | 1006.5 hPa | 0 mm | 0.45 m/s, 323° | 198 W/m² | - |
| 1777982003 | 13.33° C | 80% | 1006.6 hPa | 0 mm | 0.89 m/s, 325° | 195 W/m² | - |
| 1777981701 | 12.78° C | 80% | 1006.4 hPa | 0 mm | 0.89 m/s, 301° | 189 W/m² | - |
| 1777981397 | 12.78° C | 82% | 1006.6 hPa | 0 mm | 0.89 m/s, 287° | 174 W/m² | - |
| 1777981093 | 12.22° C | 83% | 1006.6 hPa | 0 mm | 0.45 m/s, 320° | 153 W/m² | - |
| 1777980790 | 11.67° C | 85% | 1006.7 hPa | 0 mm | 0.45 m/s, 310° | 141 W/m² | - |
| 1777980486 | 11.67° C | 84% | 1006.8 hPa | 0 mm | 0 m/s | 129 W/m² | - |
| 1777980183 | 11.67° C | 84% | 1006.5 hPa | 0 mm | 0.45 m/s, 318° | 116 W/m² | - |
* Rain latest hour (hover to see other rain measurements)
** Current wind speed in m/s (hover to see current wind gust speed)